Lafayette, LA (70507)

10:08 PM CDT on September 19, 2014 (GMT -0500)
Lafayette Regional | Change Station
CLOSE
Current Station
Airport
Location: Lafayette,
Elevation: 39 ft
Nearby Weather Stations

Elev 39 ft 30.21 °N, 91.98 °W | Updated 15 minutes ago

Clear
Clear
75 °F
Feels Like 75 °F
N
0
Wind Variable Wind from North

Today
High -- | Low -- °F
--% Chance of Precip.
Yesterday
High -- | Low -- °F
Precip. -- in
6:54 AM 7:08 PM
Waning Crescent, 15% visible
Pressure 29.96 in
Visibility 10.0 miles
Clouds Clear
Dew Point 72 °F
Humidity 90%
Rainfall 0.04 in
Snow Depth Not available.
UV 0 out of 12
Pollen 10.00 out of 12
Air Quality Not available.
Flu Activity Not available.
METAR KLFT 200253Z 00000KT 10SM CLR 24/22 A2996 RMK AO2 SLP144 T02390222 51013

More Conditions Fewer Conditions

Pressure 29.96 in
Visibility 10.0 miles
Clouds Clear
Dew Point 72 °F
Humidity 90%
Rainfall 0.04 in
Snow Depth Not available.
UV 0 out of 12
Pollen 10.00 out of 12
Air Quality Not available.
Flu Activity Not available.
METAR KLFT 200253Z 00000KT 10SM CLR 24/22 A2996 RMK AO2 SLP144 T02390222 51013

More Conditions Fewer Conditions

10-Day Weather Forecast

Almanac

Astronomy

Sep. 19, 2014 Rise Set
Actual Time 6:54 AM CDT 7:08 PM CDT
Civil Twilight 6:30 AM CDT 7:32 PM CDT
Nautical Twilight 6:02 AM CDT 8:00 PM CDT
Astronomical Twilight 5:34 AM CDT 8:28 PM CDT
Moon 2:54 AM CDT (9/19) 4:24 PM CDT (9/19)
Length of Visible Light 13h 01m
Length of Day
12h 13m
Tomorrow will be 1m 49s shorter.
Waning Crescent, 15% of the Moon is Illuminated
Today
Waning Crescent
Sep 24
New
Oct 1
First Quarter
Oct 8
Full
Oct 15
Last Quarter

Today's Extremes

State Highs State Lows

Community

WunderPhotos

Upload Photos

1,754,768 photos uploaded!

WunderBlogs® & News

Nearby

Snow Depth

Station Depth Elevation
No new snow has been reported.

Earthquake Activity

City Distance Mag. Time & Date
No recent earthquake activity has been reported nearby.
Minimum magnitude displayed is 2.5.

Coastal Water Temperatures

Place Temperature
No Stations Reporting

Nearby Weather Stations